עמוד ראשי
METAR-TAF:

METAR-TAF

שדות תעופה :

Gachsaran, איראן

קו רוחב: 30-26N, קו אורך: 050-46E, גובה: 738מטר

תצפית מזג אוויר נוכחית

הדו"ח נערך לפני 1 שעות ו 19דקות, בשעה 19:00 UTC
רוח רגועה
טמפרטורת 31 צלסיוס
לחות 21%
לחץ 1006 hPa
ראות 10 קילומטר או יותר
ללא עננים שבסיסם נמוך מ 5000 רגל או קומולונימבוס

METAR: OIAH 131900Z 00000KT CAVOK 31/06 Q1006

זמן: 00:49 (20:19 UTC)


TAF: חסר

תצפיות ותחזיות מזג אוויר לגבי יותר מ- 4,000 שדות תעופה ברחבי העולם. דוחות METAR ו- TAF.

התחנות הזמינות מסומנות בנקודות צהובות ואדומות על גבי המפה.

העבר את העכבר לנקודה הצבעונית על מנת לראות את שם התחנה.

לאחר מכן, לחץ כדי לראות את תוכן ואת תחזיות מזג האוויר.

כדי לשנות את המפה: לחץ על הכפתורים הירוקים עם הפלוס השחור כדי להתקרב; על הכפתור הירוק עם המקף כדי להתרחק; או בחיצים הירוקים למפות סמוכות.


METAR-TAF: